createdAt,value
2024-01-16T00:02:19.552Z,2.80
2024-01-16T00:04:46.425Z,2.70
2024-01-16T00:07:13.197Z,2.70
2024-01-16T00:09:40.095Z,2.60
2024-01-16T00:12:07.300Z,2.60
2024-01-16T00:14:37.985Z,2.50
2024-01-16T00:17:05.164Z,2.50
2024-01-16T00:19:31.982Z,2.60
2024-01-16T00:21:58.743Z,2.60
2024-01-16T00:24:25.551Z,2.50
2024-01-16T00:26:52.455Z,2.50
2024-01-16T00:29:19.193Z,2.50
2024-01-16T00:31:45.888Z,2.50
2024-01-16T00:34:12.752Z,2.50
2024-01-16T00:36:39.457Z,2.50
2024-01-16T00:39:06.191Z,2.50
2024-01-16T00:41:32.869Z,2.50
2024-01-16T00:43:59.592Z,2.50
2024-01-16T00:46:26.343Z,2.40
2024-01-16T00:48:53.269Z,2.40
2024-01-16T00:51:20.022Z,2.40
2024-01-16T00:53:46.896Z,2.40
2024-01-16T00:56:13.877Z,2.40
2024-01-16T00:58:40.753Z,2.40
2024-01-16T01:01:07.505Z,2.50
2024-01-16T01:03:34.257Z,2.40
2024-01-16T01:06:01.767Z,2.40
2024-01-16T01:08:28.890Z,2.40
2024-01-16T01:10:55.717Z,2.40
2024-01-16T01:13:23.023Z,2.30
2024-01-16T01:15:49.701Z,2.30
2024-01-16T01:18:16.539Z,2.40
2024-01-16T01:20:43.393Z,2.30
2024-01-16T01:23:11.013Z,2.30
2024-01-16T01:25:37.853Z,2.30
2024-01-16T01:28:04.819Z,2.30
2024-01-16T01:30:31.614Z,2.40
2024-01-16T01:32:58.489Z,2.40
2024-01-16T01:35:25.421Z,2.30
2024-01-16T01:37:52.056Z,2.40
2024-01-16T01:40:18.701Z,2.40
2024-01-16T01:42:45.415Z,2.30
2024-01-16T01:45:12.810Z,2.40
2024-01-16T01:47:42.226Z,2.40
2024-01-16T01:50:10.188Z,2.40
2024-01-16T01:52:40.076Z,2.30
2024-01-16T01:55:11.450Z,2.40
2024-01-16T01:57:38.579Z,2.40
2024-01-16T02:00:07.248Z,2.40
2024-01-16T02:02:34.608Z,2.40
2024-01-16T02:05:01.602Z,2.40
2024-01-16T02:07:29.210Z,2.40
2024-01-16T02:09:56.239Z,2.30
2024-01-16T02:12:25.740Z,2.40
2024-01-16T02:14:53.010Z,2.40
2024-01-16T02:17:19.715Z,2.40
2024-01-16T02:19:46.369Z,2.40
2024-01-16T02:22:20.159Z,2.40
2024-01-16T02:24:46.884Z,2.40
2024-01-16T02:27:14.097Z,2.30
2024-01-16T02:29:44.421Z,2.30
2024-01-16T02:32:14.266Z,2.30
2024-01-16T02:34:41.510Z,2.30
2024-01-16T02:37:08.424Z,2.20
2024-01-16T02:39:35.229Z,2.20
2024-01-16T02:42:02.041Z,2.20
2024-01-16T02:44:28.944Z,2.20
2024-01-16T02:46:55.902Z,2.20
2024-01-16T02:49:22.738Z,2.20
2024-01-16T02:51:50.028Z,2.10
2024-01-16T02:54:16.757Z,2.10
2024-01-16T02:56:43.512Z,2.10
2024-01-16T02:59:10.605Z,2.10
2024-01-16T03:01:37.391Z,2.00
2024-01-16T03:04:04.131Z,2.00
2024-01-16T03:06:31.453Z,2.00
2024-01-16T03:08:58.288Z,2.00
2024-01-16T03:11:25.214Z,2.00
2024-01-16T03:13:53.786Z,1.90
2024-01-16T03:16:20.561Z,1.90
2024-01-16T03:18:48.472Z,1.90
2024-01-16T03:21:15.743Z,1.80
2024-01-16T03:23:42.627Z,1.70
2024-01-16T03:26:14.825Z,1.70
2024-01-16T03:28:42.061Z,1.60
2024-01-16T03:31:08.971Z,1.70
2024-01-16T03:33:36.765Z,1.70
2024-01-16T03:36:05.188Z,1.60
2024-01-16T03:38:31.865Z,1.70
2024-01-16T03:40:58.539Z,1.70
2024-01-16T03:43:25.191Z,1.70
2024-01-16T03:45:51.846Z,1.70
2024-01-16T03:48:18.624Z,1.60
2024-01-16T03:50:46.519Z,1.60
2024-01-16T03:53:13.926Z,1.60
2024-01-16T03:55:40.748Z,1.60
2024-01-16T03:58:09.115Z,1.60
2024-01-16T04:00:37.693Z,1.50
2024-01-16T04:03:04.741Z,1.50
2024-01-16T04:05:31.502Z,1.40
2024-01-16T04:07:58.549Z,1.50
2024-01-16T04:10:25.336Z,1.40
2024-01-16T04:12:52.200Z,1.30
2024-01-16T04:15:21.640Z,1.30
2024-01-16T04:17:49.855Z,1.30
2024-01-16T04:20:16.875Z,1.20
2024-01-16T04:22:43.584Z,1.20
2024-01-16T04:25:10.660Z,1.00
2024-01-16T04:27:37.371Z,1.00
2024-01-16T04:30:05.217Z,1.00
2024-01-16T04:32:32.175Z,1.00
2024-01-16T04:34:59.077Z,0.90
2024-01-16T04:37:25.708Z,0.90
2024-01-16T04:39:52.587Z,0.90
2024-01-16T04:42:19.305Z,0.90
2024-01-16T04:44:46.035Z,0.80
2024-01-16T04:47:12.841Z,0.80
2024-01-16T04:49:39.619Z,0.80
2024-01-16T04:52:07.169Z,0.80
2024-01-16T04:54:33.895Z,0.70
2024-01-16T04:57:00.592Z,0.70
2024-01-16T04:59:27.391Z,0.70
2024-01-16T05:01:54.122Z,0.70
2024-01-16T05:04:20.768Z,0.70
2024-01-16T05:06:53.335Z,0.60
2024-01-16T05:09:22.973Z,0.70
2024-01-16T05:11:50.383Z,0.60
2024-01-16T05:14:17.160Z,0.60
2024-01-16T05:16:43.851Z,0.60
2024-01-16T05:19:10.543Z,0.60
2024-01-16T05:21:37.258Z,0.60
2024-01-16T05:24:04.193Z,0.60
2024-01-16T05:26:30.853Z,0.50
2024-01-16T05:28:57.599Z,0.60
2024-01-16T05:31:24.241Z,0.50
2024-01-16T05:33:51.011Z,0.50
2024-01-16T05:36:17.714Z,0.50
2024-01-16T05:38:44.970Z,0.50
2024-01-16T05:41:11.770Z,0.50
2024-01-16T05:43:38.441Z,0.50
2024-01-16T05:46:05.521Z,0.50
2024-01-16T05:48:34.016Z,0.50
2024-01-16T05:51:00.881Z,0.40
2024-01-16T05:53:27.596Z,0.50
2024-01-16T05:55:55.572Z,0.50
2024-01-16T05:58:22.252Z,0.50
2024-01-16T06:00:49.003Z,0.50
2024-01-16T06:03:15.761Z,0.50
2024-01-16T06:05:42.679Z,0.50
2024-01-16T06:08:09.479Z,0.50
2024-01-16T06:10:36.231Z,0.50
2024-01-16T06:13:02.999Z,0.50
2024-01-16T06:15:29.662Z,0.60
2024-01-16T06:17:56.918Z,0.50
2024-01-16T06:20:25.753Z,0.50
2024-01-16T06:22:52.457Z,0.50
2024-01-16T06:25:19.076Z,0.50
2024-01-16T06:27:46.026Z,0.50
2024-01-16T06:30:13.170Z,0.50
2024-01-16T06:32:40.306Z,0.50
2024-01-16T06:35:08.684Z,0.50
2024-01-16T06:37:35.585Z,0.50
2024-01-16T06:40:02.263Z,0.50
2024-01-16T06:42:28.980Z,0.50
2024-01-16T06:44:55.868Z,0.40
2024-01-16T06:47:22.765Z,0.40
2024-01-16T06:49:49.479Z,0.40
2024-01-16T06:52:16.169Z,0.40
2024-01-16T06:54:42.917Z,0.40
2024-01-16T06:57:09.593Z,0.50
2024-01-16T06:59:36.230Z,0.50
2024-01-16T07:02:03.005Z,0.50
2024-01-16T07:04:29.726Z,0.50
2024-01-16T07:06:56.600Z,0.60
2024-01-16T07:09:24.138Z,0.60
2024-01-16T07:11:50.835Z,0.60
2024-01-16T07:14:17.591Z,0.60
2024-01-16T07:16:44.399Z,0.60
2024-01-16T07:19:11.246Z,0.60
2024-01-16T07:21:37.900Z,0.70
2024-01-16T07:24:04.754Z,0.80
2024-01-16T07:26:31.812Z,0.80
2024-01-16T07:28:58.584Z,0.80
2024-01-16T07:31:26.933Z,0.70
2024-01-16T07:33:54.015Z,0.80
2024-01-16T07:36:20.968Z,0.80
2024-01-16T07:38:47.699Z,0.80
2024-01-16T07:41:14.542Z,0.80
2024-01-16T07:43:41.249Z,0.90
2024-01-16T07:46:08.178Z,0.90
2024-01-16T07:48:35.016Z,0.90
2024-01-16T07:51:02.154Z,0.80
2024-01-16T07:53:29.038Z,0.70
2024-01-16T07:55:55.969Z,0.80
2024-01-16T07:58:22.987Z,0.70
2024-01-16T08:00:50.154Z,0.70
2024-01-16T08:03:16.890Z,0.70
2024-01-16T08:05:43.750Z,0.70
2024-01-16T08:08:10.906Z,0.70
2024-01-16T08:10:37.870Z,0.70
2024-01-16T08:13:04.722Z,0.70
2024-01-16T08:15:31.506Z,0.60
2024-01-16T08:17:58.329Z,0.70
2024-01-16T08:20:25.056Z,0.70
2024-01-16T08:22:51.745Z,0.70
2024-01-16T08:25:18.394Z,0.70
2024-01-16T08:27:45.047Z,0.70
2024-01-16T08:30:14.867Z,0.80
2024-01-16T08:32:41.703Z,0.80
2024-01-16T08:35:09.860Z,0.80
2024-01-16T08:37:36.609Z,0.80
2024-01-16T08:40:05.707Z,0.70
2024-01-16T08:42:32.578Z,0.80
2024-01-16T08:44:59.315Z,0.80
2024-01-16T08:47:26.120Z,0.90
2024-01-16T08:49:53.355Z,0.90
2024-01-16T08:52:20.084Z,0.90
2024-01-16T08:54:46.720Z,1.00
2024-01-16T08:57:16.425Z,1.00
2024-01-16T08:59:44.600Z,1.00
2024-01-16T09:02:11.540Z,1.00
2024-01-16T09:04:39.048Z,1.00
2024-01-16T09:07:07.252Z,1.00
2024-01-16T09:09:34.289Z,1.10
2024-01-16T09:12:01.006Z,1.00
2024-01-16T09:14:27.692Z,1.10
2024-01-16T09:16:55.404Z,1.10
2024-01-16T09:19:22.453Z,1.20
2024-01-16T09:21:49.765Z,1.10
2024-01-16T09:24:16.700Z,1.20
2024-01-16T09:26:43.647Z,1.10
2024-01-16T09:29:11.198Z,1.20
2024-01-16T09:31:37.986Z,1.30
2024-01-16T09:34:09.361Z,1.30
2024-01-16T09:36:38.137Z,1.30
2024-01-16T09:39:11.929Z,1.40
2024-01-16T09:41:43.728Z,1.50
2024-01-16T09:44:10.699Z,1.50
2024-01-16T09:46:39.802Z,1.80
2024-01-16T09:49:06.730Z,1.80
2024-01-16T09:51:33.409Z,1.80
2024-01-16T09:54:00.475Z,1.80
2024-01-16T09:56:29.224Z,1.90
2024-01-16T09:59:06.245Z,1.90
2024-01-16T10:01:34.083Z,1.90
2024-01-16T10:04:00.842Z,1.90
2024-01-16T10:06:30.872Z,1.90
2024-01-16T10:08:57.638Z,2.00
2024-01-16T10:11:24.651Z,2.00
2024-01-16T10:13:51.315Z,2.00
2024-01-16T10:16:18.048Z,2.00
2024-01-16T10:18:45.008Z,2.00
2024-01-16T10:21:30.217Z,2.10
2024-01-16T10:24:11.463Z,2.10
2024-01-16T10:26:38.115Z,2.10
2024-01-16T10:29:07.960Z,2.10
2024-01-16T10:31:34.959Z,2.20
2024-01-16T10:34:02.046Z,2.20
2024-01-16T10:36:28.893Z,2.30
2024-01-16T10:39:04.339Z,2.30
2024-01-16T10:41:31.336Z,2.30
2024-01-16T10:44:08.376Z,2.30
2024-01-16T10:46:36.628Z,2.30
2024-01-16T10:49:05.187Z,2.30
2024-01-16T10:51:33.241Z,2.30
2024-01-16T10:54:01.738Z,2.40
2024-01-16T10:56:31.352Z,2.40
2024-01-16T10:59:07.182Z,2.40
2024-01-16T11:01:34.837Z,2.40
2024-01-16T11:04:03.180Z,2.40
2024-01-16T11:06:31.644Z,2.40
2024-01-16T11:08:59.535Z,2.40
2024-01-16T11:11:28.268Z,2.50
2024-01-16T11:13:56.437Z,2.50
2024-01-16T11:16:24.679Z,2.50
2024-01-16T11:18:51.612Z,2.50
2024-01-16T11:21:19.446Z,2.50
2024-01-16T11:23:47.945Z,2.60
2024-01-16T11:26:41.204Z,2.60
2024-01-16T11:29:29.511Z,2.60
2024-01-16T11:32:12.721Z,2.70
2024-01-16T11:34:50.247Z,2.80
2024-01-16T11:37:27.756Z,2.80
2024-01-16T11:40:20.518Z,2.90
2024-01-16T11:42:47.772Z,3.00
2024-01-16T11:45:32.588Z,3.00
2024-01-16T11:48:12.923Z,3.00
2024-01-16T11:50:40.393Z,3.10
2024-01-16T11:53:07.250Z,3.20
2024-01-16T11:55:42.785Z,3.20
2024-01-16T11:58:37.577Z,3.20
2024-01-16T12:01:07.155Z,3.20
2024-01-16T12:03:35.613Z,3.20
2024-01-16T12:06:04.514Z,3.20
2024-01-16T12:08:31.700Z,3.20
2024-01-16T12:10:59.057Z,3.20
2024-01-16T12:13:25.908Z,3.30
2024-01-16T12:16:03.208Z,3.40
2024-01-16T12:18:38.755Z,3.40
2024-01-16T12:21:11.386Z,3.50
2024-01-16T12:23:42.134Z,3.50
2024-01-16T12:26:21.918Z,3.50
2024-01-16T12:28:58.689Z,3.50
2024-01-16T12:31:28.366Z,3.60
2024-01-16T12:34:16.692Z,3.60
2024-01-16T12:36:46.712Z,3.70
2024-01-16T12:39:13.959Z,3.80
2024-01-16T12:41:44.603Z,3.80
2024-01-16T12:44:16.330Z,3.90
2024-01-16T12:46:57.856Z,3.90
2024-01-16T12:49:26.048Z,3.90
2024-01-16T12:51:53.997Z,3.90
2024-01-16T12:54:24.631Z,4.00
2024-01-16T12:57:00.440Z,4.00
2024-01-16T12:59:32.179Z,4.00
2024-01-16T13:01:59.607Z,4.00
2024-01-16T13:04:26.308Z,4.10
2024-01-16T13:07:03.144Z,4.10
2024-01-16T13:09:29.939Z,4.10
2024-01-16T13:11:57.629Z,4.20
2024-01-16T13:14:25.159Z,4.20
2024-01-16T13:16:53.343Z,4.20
2024-01-16T13:19:20.987Z,4.30
2024-01-16T13:21:49.148Z,4.30
2024-01-16T13:24:16.248Z,4.40
2024-01-16T13:26:43.329Z,4.50
2024-01-16T13:29:10.337Z,4.50
2024-01-16T13:31:37.257Z,4.50
2024-01-16T13:34:04.193Z,4.50
2024-01-16T13:39:01.600Z,4.50
2024-01-16T13:41:28.919Z,4.50
2024-01-16T13:43:55.781Z,4.40
2024-01-16T13:46:36.749Z,4.40
2024-01-16T13:49:10.261Z,4.50
2024-01-16T13:51:37.018Z,4.50
2024-01-16T13:54:04.396Z,4.60
2024-01-16T13:56:48.687Z,4.50
2024-01-16T13:59:17.686Z,4.50
2024-01-16T14:01:46.191Z,4.50
2024-01-16T14:04:13.055Z,4.50
2024-01-16T14:06:56.078Z,4.50
2024-01-16T14:09:26.401Z,4.40
2024-01-16T14:11:53.062Z,4.40
2024-01-16T14:14:19.766Z,4.40
2024-01-16T14:16:54.517Z,4.30
2024-01-16T14:19:27.681Z,4.20
2024-01-16T14:21:54.820Z,4.20
2024-01-16T14:24:22.613Z,4.20
2024-01-16T14:26:49.721Z,4.20
2024-01-16T14:29:16.785Z,4.20
2024-01-16T14:31:44.079Z,4.20
2024-01-16T14:34:16.693Z,4.20
2024-01-16T14:36:43.453Z,4.20
2024-01-16T14:39:19.325Z,4.10
2024-01-16T14:41:47.134Z,4.10
2024-01-16T14:44:14.344Z,4.10
2024-01-16T14:46:47.821Z,4.10
2024-01-16T14:49:15.978Z,4.10
2024-01-16T14:51:43.197Z,4.00
2024-01-16T14:54:10.125Z,4.00
2024-01-16T14:56:37.090Z,4.00
2024-01-16T14:59:04.132Z,4.00
2024-01-16T15:01:30.861Z,4.00
2024-01-16T15:03:58.664Z,4.00
2024-01-16T15:06:27.812Z,4.00
2024-01-16T15:08:55.618Z,4.00
2024-01-16T15:11:22.671Z,4.00
2024-01-16T15:13:50.383Z,4.00
2024-01-16T15:16:17.962Z,3.90
2024-01-16T15:18:45.032Z,3.90
2024-01-16T15:21:11.980Z,3.90
2024-01-16T15:23:38.735Z,3.90
2024-01-16T15:26:05.977Z,3.90
2024-01-16T15:28:34.068Z,3.80
2024-01-16T15:31:08.452Z,3.80
2024-01-16T15:33:36.477Z,3.80
2024-01-16T15:36:04.384Z,3.80
2024-01-16T15:38:31.257Z,3.70
2024-01-16T15:40:57.987Z,3.70
2024-01-16T15:43:24.727Z,3.60
2024-01-16T15:45:51.811Z,3.60
2024-01-16T15:48:18.620Z,3.60
2024-01-16T15:50:45.638Z,3.60
2024-01-16T15:53:16.332Z,3.50
2024-01-16T15:55:43.326Z,3.50
2024-01-16T15:58:11.101Z,3.50
2024-01-16T16:00:37.856Z,3.40
2024-01-16T16:03:06.315Z,3.50
2024-01-16T16:05:33.457Z,3.50
2024-01-16T16:08:00.284Z,3.50
2024-01-16T16:10:27.843Z,3.50
2024-01-16T16:12:54.527Z,3.50
2024-01-16T16:15:21.171Z,3.50
2024-01-16T16:17:47.918Z,3.50
2024-01-16T16:20:15.369Z,3.50
2024-01-16T16:22:42.194Z,3.50
2024-01-16T16:25:08.965Z,3.50
2024-01-16T16:27:35.684Z,3.40
2024-01-16T16:30:02.573Z,3.40
2024-01-16T16:32:29.470Z,3.30
2024-01-16T16:34:56.336Z,3.30
2024-01-16T16:37:23.963Z,3.30
2024-01-16T16:39:51.007Z,3.30
2024-01-16T16:42:19.921Z,3.30
2024-01-16T16:44:47.263Z,3.30
2024-01-16T16:47:16.481Z,3.30
2024-01-16T16:49:43.274Z,3.20
2024-01-16T16:52:09.941Z,3.30
2024-01-16T16:54:36.816Z,3.20
2024-01-16T16:57:03.791Z,3.20
2024-01-16T16:59:31.156Z,3.20
2024-01-16T17:01:59.263Z,3.10
2024-01-16T17:04:26.123Z,3.20
2024-01-16T17:06:55.313Z,3.20
2024-01-16T17:09:22.505Z,3.20
2024-01-16T17:11:49.386Z,3.20
2024-01-16T17:14:16.738Z,3.20
2024-01-16T17:16:44.458Z,3.20
2024-01-16T17:19:12.130Z,3.10
2024-01-16T17:21:40.116Z,3.10
2024-01-16T17:24:07.505Z,3.00
2024-01-16T17:26:35.767Z,3.00
2024-01-16T17:29:02.775Z,3.00
2024-01-16T17:31:29.788Z,3.00
2024-01-16T17:33:57.806Z,3.00
2024-01-16T17:36:25.396Z,3.00
2024-01-16T17:38:57.345Z,3.10
2024-01-16T17:41:27.539Z,3.10
2024-01-16T17:43:57.466Z,3.10
2024-01-16T17:46:24.104Z,3.10
2024-01-16T17:48:51.140Z,3.20
2024-01-16T17:51:18.039Z,3.20
2024-01-16T17:53:45.165Z,3.30
2024-01-16T17:56:13.737Z,3.20
2024-01-16T17:58:40.513Z,3.20
2024-01-16T18:01:12.244Z,3.20
2024-01-16T18:03:43.585Z,3.20
2024-01-16T18:06:14.278Z,3.20
2024-01-16T18:08:41.228Z,3.30
2024-01-16T18:11:07.931Z,3.30
2024-01-16T18:13:35.477Z,3.30
2024-01-16T18:16:06.881Z,3.30
2024-01-16T18:18:34.304Z,3.30
2024-01-16T18:21:01.364Z,3.30
2024-01-16T18:23:28.451Z,3.30
2024-01-16T18:25:58.018Z,3.30
2024-01-16T18:28:27.052Z,3.40
2024-01-16T18:30:54.073Z,3.40
2024-01-16T18:33:21.109Z,3.50
2024-01-16T18:35:48.135Z,3.50
2024-01-16T18:38:15.274Z,3.50
2024-01-16T18:40:42.399Z,3.50
2024-01-16T18:43:09.172Z,3.50
2024-01-16T18:45:36.400Z,3.50
2024-01-16T18:48:04.964Z,3.50
2024-01-16T18:50:34.070Z,3.50
2024-01-16T18:53:01.113Z,3.50
2024-01-16T18:55:27.958Z,3.50
2024-01-16T18:58:00.687Z,3.50
2024-01-16T19:00:28.587Z,3.50
2024-01-16T19:02:55.436Z,3.50
2024-01-16T19:05:23.091Z,3.50
2024-01-16T19:07:50.847Z,3.60
2024-01-16T19:10:17.813Z,3.60
2024-01-16T19:12:48.424Z,3.60
2024-01-16T19:15:20.587Z,3.70
2024-01-16T19:17:48.895Z,3.60
2024-01-16T19:20:15.904Z,3.60
2024-01-16T19:22:44.458Z,3.60
2024-01-16T19:25:12.638Z,3.60
2024-01-16T19:27:43.050Z,3.70
2024-01-16T19:30:14.579Z,3.70
2024-01-16T19:32:45.063Z,3.60
2024-01-16T19:35:13.160Z,3.60
2024-01-16T19:37:41.190Z,3.60
2024-01-16T19:40:11.761Z,3.60
2024-01-16T19:42:41.473Z,3.60
2024-01-16T19:45:10.584Z,3.60
2024-01-16T19:47:42.784Z,3.60
2024-01-16T19:50:21.029Z,3.50
2024-01-16T19:52:53.238Z,3.50
2024-01-16T19:55:23.486Z,3.40
2024-01-16T19:57:53.759Z,3.40
2024-01-16T20:00:21.300Z,3.50
2024-01-16T20:02:48.672Z,3.50
2024-01-16T20:05:18.713Z,3.50
2024-01-16T20:07:46.363Z,3.50
2024-01-16T20:10:19.650Z,3.50
2024-01-16T20:12:50.864Z,3.60
2024-01-16T20:15:22.515Z,3.60
2024-01-16T20:17:50.783Z,3.60
2024-01-16T20:20:17.939Z,3.60
2024-01-16T20:22:44.853Z,3.60
2024-01-16T20:25:15.617Z,3.60
2024-01-16T20:27:43.077Z,3.60
2024-01-16T20:30:11.032Z,3.60
2024-01-16T20:32:44.153Z,3.60
2024-01-16T20:35:13.119Z,3.60
2024-01-16T20:37:40.468Z,3.70
2024-01-16T20:40:10.143Z,3.60
2024-01-16T20:42:38.276Z,3.70
2024-01-16T20:45:12.373Z,3.70
2024-01-16T20:47:40.730Z,3.70
2024-01-16T20:50:10.281Z,3.70
2024-01-16T20:52:36.980Z,3.60
2024-01-16T20:55:08.275Z,3.60
2024-01-16T20:57:36.188Z,3.60
2024-01-16T21:00:05.994Z,3.50
2024-01-16T21:02:33.260Z,3.50
2024-01-16T21:05:00.123Z,3.40
2024-01-16T21:07:27.126Z,3.50
2024-01-16T21:09:53.917Z,3.40
2024-01-16T21:12:20.561Z,3.50
2024-01-16T21:14:47.264Z,3.40
2024-01-16T21:17:13.996Z,3.40
2024-01-16T21:19:42.358Z,3.50
2024-01-16T21:22:09.039Z,3.40
2024-01-16T21:24:35.659Z,3.50
2024-01-16T21:27:02.456Z,3.50
2024-01-16T21:29:29.314Z,3.50
2024-01-16T21:31:57.645Z,3.50
2024-01-16T21:34:24.840Z,3.50
2024-01-16T21:36:52.931Z,3.50
2024-01-16T21:39:21.190Z,3.50
2024-01-16T21:41:47.967Z,3.50
2024-01-16T21:44:14.875Z,3.50
2024-01-16T21:46:42.919Z,3.50
2024-01-16T21:49:10.470Z,3.50
2024-01-16T21:51:37.331Z,3.50
2024-01-16T21:54:05.752Z,3.50
2024-01-16T21:56:32.663Z,3.50
2024-01-16T21:59:00.244Z,3.50
2024-01-16T22:01:27.199Z,3.60
2024-01-16T22:03:53.851Z,3.60
2024-01-16T22:06:21.514Z,3.60
2024-01-16T22:08:52.912Z,3.60
2024-01-16T22:11:20.237Z,3.60
2024-01-16T22:13:47.269Z,3.60
2024-01-16T22:16:14.122Z,3.60
2024-01-16T22:18:42.361Z,3.60
2024-01-16T22:21:11.350Z,3.60
2024-01-16T22:23:38.145Z,3.60
2024-01-16T22:26:04.967Z,3.50
2024-01-16T22:28:31.713Z,3.50
2024-01-16T22:30:58.599Z,3.50
2024-01-16T22:33:25.466Z,3.50
2024-01-16T22:35:53.180Z,3.50
2024-01-16T22:38:20.042Z,3.40
2024-01-16T22:40:46.869Z,3.50
2024-01-16T22:43:13.587Z,3.50
2024-01-16T22:45:40.636Z,3.50
2024-01-16T22:48:11.885Z,3.50
2024-01-16T22:50:41.363Z,3.60
2024-01-16T22:53:08.110Z,3.60
2024-01-16T22:55:35.109Z,3.60
2024-01-16T22:58:03.713Z,3.60
2024-01-16T23:00:31.073Z,3.60
2024-01-16T23:02:58.090Z,3.70
2024-01-16T23:05:27.916Z,3.70
2024-01-16T23:07:55.210Z,3.70
2024-01-16T23:10:21.836Z,3.70
2024-01-16T23:12:49.835Z,3.70
2024-01-16T23:15:16.861Z,3.70
2024-01-16T23:17:44.153Z,3.60
2024-01-16T23:20:15.886Z,3.70
2024-01-16T23:22:46.501Z,3.70
2024-01-16T23:25:14.338Z,3.60
2024-01-16T23:27:42.536Z,3.60
2024-01-16T23:30:11.080Z,3.60
2024-01-16T23:32:38.771Z,3.60
2024-01-16T23:35:07.041Z,3.60
2024-01-16T23:37:35.225Z,3.60
2024-01-16T23:40:02.309Z,3.60
2024-01-16T23:42:32.536Z,3.60
2024-01-16T23:45:01.243Z,3.70
2024-01-16T23:47:28.158Z,3.70
2024-01-16T23:49:54.863Z,3.60
2024-01-16T23:52:21.553Z,3.70
2024-01-16T23:54:48.201Z,3.70
2024-01-16T23:57:15.010Z,3.70
2024-01-16T23:59:41.805Z,3.60
